Last 7 Days

Gordon Valley 3

Hourly Data | America/Los_Angeles
as of 6/4/20 8:00 AM PDT
Date & Time Temp (°F) RH (%) Dew Pt (°F) Wind Spd (mph) Wind Dir (°) Wind Gust (mph) Latest Rain (In) Daily Rain (In) Daily Min Temp (°F) Daily Max Temp (°F)
6/4/20 - 0700 57.2 82 51.7 0.5 ENE | 59 2.1 0.00 0.00 52.5 65.0
6/4/20 - 0600 53.2 87 49.3 0.8 ENE | 58 3.1 0.00 0.00 52.5 57.8
6/4/20 - 0500 52.9 87 49.2 1.0 NNE | 22 2.7 0.00 0.00 52.5 57.8
6/4/20 - 0400 54.0 83 48.9 0.9 NNE | 31 3.1 0.00 0.00 52.9 57.8
6/4/20 - 0300 55.4 79 49.1 1.0 NNE | 25 2.7 0.00 0.00 54.5 57.8
6/4/20 - 0200 56.5 76 49.1 1.2 NNE | 21 3.1 0.00 0.00 55.6 57.8
6/4/20 - 0100 59.0 72 49.9 1.1 NE | 45 3.4 0.00 0.00 57.2 101.1
6/4/20 - 0000 62.0 61 48.4 1.0 NNE | 15 4.4 0.00 0.00 57.8 101.1
6/3/20 - 2300 64.4 59 49.7 1.3 NNE | 23 4.1 0.00 0.00 57.8 101.1
6/3/20 - 2200 67.4 59 52.5 1.4 NNE | 24 4.4 0.00 0.00 57.8 101.1
6/3/20 - 2100 78.0 38 49.2 1.6 ENE | 61 5.1 0.00 0.00 57.8 101.1
6/3/20 - 2000 90.7 19 42.8 5.0 WSW | 258 10.8 0.00 0.00 57.8 101.1
6/3/20 - 1900 96.2 18 45.3 4.3 WSW | 246 11.1 0.00 0.00 57.8 101.1
6/3/20 - 1800 96.4 20 49.0 8.2 WSW | 242 18.5 0.00 0.00 57.8 101.1
6/3/20 - 1700 98.5 21 51.6 7.8 WSW | 242 17.5 0.00 0.00 57.8 101.1
6/3/20 - 1600 100.5 16 46.3 8.4 SW | 217 15.5 0.00 0.00 57.8 101.1
6/3/20 - 1500 99.7 20 51.8 6.6 SSW | 192 14.2 0.00 0.00 57.8 101.1
6/3/20 - 1400 97.5 22 52.4 3.8 SSW | 207 10.5 0.00 0.00 57.8 98.8
6/3/20 - 1300 94.5 27 55.5 3.0 SSW | 208 7.8 0.00 0.00 57.8 97.0
6/3/20 - 1200 92.3 30 56.6 4.0 S | 174 9.8 0.00 0.00 57.8 93.6
6/3/20 - 1100 89.3 34 57.3 3.6 SSE | 152 9.1 0.00 0.00 57.8 91.0
6/3/20 - 1000 86.9 37 57.3 2.1 S | 188 6.1 0.00 0.00 57.8 89.1
6/3/20 - 0900 82.3 42 56.9 0.7 S | 170 3.8 0.00 0.00 57.8 85.4
6/3/20 - 0800 74.1 56 57.4 0.7 ENE | 67 2.7 0.00 0.00 57.8 78.6
6/3/20 - 0700 62.0 82 56.2 0.9 NNE | 29 3.1 0.00 0.00 57.8 72.2
6/3/20 - 0600 59.6 82 54.2 1.2 SSW | 206 4.1 0.00 0.00 57.9 72.2
6/3/20 - 0500 63.2 73 54.3 1.8 NNE | 17 3.4 0.00 0.00 61.9 72.2
6/3/20 - 0400 67.2 62 53.6 2.7 N | 1 6.1 0.00 0.00 63.7 72.2
6/3/20 - 0300 70.0 55 52.9 3.6 N | 7 7.1 0.00 0.00 68.8 72.2
6/3/20 - 0200 70.6 54 53.1 2.0 NNE | 15 5.4 0.00 0.00 69.2 72.2
6/3/20 - 0100 72.1 52 53.3 2.9 N | 3 8.4 0.00 0.00 59.1 96.7
6/3/20 - 0000 68.7 58 53.5 2.0 N | 358 8.4 0.00 0.00 59.1 96.7
6/2/20 - 2300 68.7 60 54.2 1.2 N | 8 5.1 0.00 0.00 59.1 96.7
6/2/20 - 2200 69.8 60 55.4 0.7 NE | 44 3.1 0.00 0.00 59.1 96.7
6/2/20 - 2100 75.4 53 57.2 1.0 NNE | 13 3.4 0.00 0.00 59.1 96.7
6/2/20 - 2000 86.6 33 53.5 2.2 WNW | 284 9.1 0.00 0.00 59.1 96.7
6/2/20 - 1900 90.3 27 51.4 7.2 WSW | 244 16.2 0.00 0.00 59.1 96.7
6/2/20 - 1800 92.8 27 53.8 9.0 WSW | 237 15.2 0.00 0.00 59.1 96.7
6/2/20 - 1700 94.7 26 54.8 8.6 SW | 226 15.5 0.00 0.00 59.1 96.7
6/2/20 - 1600 95.8 27 56.0 6.6 SSW | 213 12.8 0.00 0.00 59.1 96.7
6/2/20 - 1500 94.5 27 55.7 4.7 S | 173 11.1 0.00 0.00 59.1 95.8
6/2/20 - 1400 93.3 29 56.0 4.9 S | 191 12.8 0.00 0.00 59.1 94.8
6/2/20 - 1300 91.6 30 56.1 5.0 S | 173 11.8 0.00 0.00 59.1 92.4
6/2/20 - 1200 89.5 32 55.6 4.5 S | 184 10.5 0.00 0.00 59.1 91.6
6/2/20 - 1100 86.4 35 55.5 3.8 S | 179 8.8 0.00 0.00 59.1 87.8
6/2/20 - 1000 82.4 41 56.5 3.0 S | 186 7.4 0.00 0.00 59.1 85.1
6/2/20 - 0900 76.6 51 57.0 2.3 SSW | 193 5.1 0.00 0.00 59.1 79.5
6/2/20 - 0800 74.2 53 56.0 1.1 ENE | 75 5.4 0.00 0.00 59.1 76.3
6/2/20 - 0700 66.7 63 53.9 2.6 NE | 46 5.8 0.00 0.00 59.1 69.9
6/2/20 - 0600 64.8 65 53.0 3.6 NE | 49 6.1 0.00 0.00 59.1 65.7
6/2/20 - 0500 62.6 71 52.9 4.0 NNE | 26 6.4 0.00 0.00 59.1 64.7
6/2/20 - 0400 60.6 75 52.5 3.8 NNE | 19 5.8 0.00 0.00 59.1 64.2
6/2/20 - 0300 61.7 70 52.0 2.0 NNE | 27 4.1 0.00 0.00 59.9 64.2
6/2/20 - 0200 63.3 66 51.8 3.2 NNE | 21 4.8 0.00 0.00 62.2 64.2
6/2/20 - 0100 64.0 65 52.0 3.4 NNE | 17 5.1 0.00 0.00 55.5 87.9
6/2/20 - 0000 65.7 61 52.0 1.4 N | 9 6.8 0.00 0.00 55.5 87.9
6/1/20 - 2300 66.1 60 51.8 1.8 NNE | 14 4.4 0.00 0.00 55.5 87.9
6/1/20 - 2200 67.6 56 51.4 2.0 N | 1 4.4 0.00 0.00 55.5 87.9
6/1/20 - 2100 72.3 49 51.9 1.3 N | 8 5.1 0.00 0.00 55.5 87.9
6/1/20 - 2000 79.2 42 54.0 2.3 WNW | 300 5.8 0.00 0.00 55.5 87.9
6/1/20 - 1900 82.7 38 54.4 6.0 SW | 236 10.1 0.00 0.00 55.5 87.9
6/1/20 - 1800 85.5 33 52.8 6.9 SW | 231 12.8 0.00 0.00 55.5 87.9
6/1/20 - 1700 85.9 32 52.3 7.4 SW | 233 15.5 0.00 0.00 55.5 87.9
6/1/20 - 1600 86.5 32 53.2 5.7 SW | 217 12.5 0.00 0.00 55.5 87.9
6/1/20 - 1500 84.8 34 53.1 6.0 SW | 224 13.2 0.00 0.00 55.5 86.1
6/1/20 - 1400 83.2 35 52.6 5.6 SW | 224 13.8 0.00 0.00 55.5 84.4
6/1/20 - 1300 81.1 35 51.2 4.3 SSW | 207 11.8 0.00 0.00 55.5 82.6
6/1/20 - 1200 77.8 42 52.6 3.7 SSW | 192 9.1 0.00 0.00 55.5 80.0
6/1/20 - 1100 74.1 50 54.2 4.7 S | 179 12.5 0.00 0.00 55.5 75.4
6/1/20 - 1000 69.2 60 54.6 3.4 NNE | 17 9.1 0.00 0.00 55.5 71.7
6/1/20 - 0900 64.4 68 53.7 1.4 WNW | 283 4.8 0.00 0.00 55.5 69.5
6/1/20 - 0800 59.2 81 53.3 1.2 SSE | 162 4.1 0.00 0.00 55.5 61.5
6/1/20 - 0700 56.0 90 53.0 0.4 S | 180 1.7 0.00 0.00 55.5 58.3
6/1/20 - 0600 56.1 87 52.3 0.8 N | 350 2.4 0.00 0.00 55.6 58.3
6/1/20 - 0500 56.9 83 51.7 2.5 SE | 136 7.4 0.00 0.00 56.5 58.3
6/1/20 - 0400 57.5 80 51.4 1.1 SSE | 148 3.4 0.00 0.00 57.0 58.3
6/1/20 - 0300 57.5 82 52.1 0.8 NNW | 336 3.1 0.00 0.00 57.2 58.3
6/1/20 - 0200 58.2 78 51.3 2.9 S | 191 7.8 0.00 0.00 57.8 58.3
6/1/20 - 0100 58.4 78 51.6 2.9 SSE | 153 7.1 0.00 0.00 52.5 78.9
6/1/20 - 0000 55.5 89 52.5 0.6 ENE | 63 3.4 0.00 0.00 52.5 78.9
5/31/20 - 2300 56.6 84 51.8 0.6 NNW | 348 2.7 0.00 0.00 52.5 78.9
5/31/20 - 2200 60.2 75 52.1 1.0 NNE | 23 3.4 0.00 0.00 52.5 78.9
5/31/20 - 2100 63.7 66 52.2 1.4 W | 264 4.1 0.00 0.00 52.5 78.9
5/31/20 - 2000 67.6 59 52.7 5.8 WSW | 249 15.2 0.00 0.00 52.5 78.9
5/31/20 - 1900 70.2 56 53.7 8.5 WSW | 237 14.2 0.00 0.00 52.5 78.9
5/31/20 - 1800 72.8 53 54.5 9.2 SW | 232 16.2 0.00 0.00 52.5 78.9
5/31/20 - 1700 75.3 47 53.6 8.2 WSW | 240 15.8 0.00 0.00 52.5 78.9
5/31/20 - 1600 77.0 44 53.2 6.5 SW | 229 13.5 0.00 0.00 52.5 78.9
5/31/20 - 1500 75.4 47 53.6 6.9 SW | 233 14.5 0.00 0.00 52.5 78.2
5/31/20 - 1400 75.3 47 53.9 7.8 SW | 229 14.8 0.00 0.00 52.5 78.2
5/31/20 - 1300 76.6 46 54.2 7.4 SW | 228 14.2 0.00 0.00 52.5 78.2
5/31/20 - 1200 76.1 48 55.0 6.5 SSW | 204 13.2 0.00 0.00 52.5 77.4
5/31/20 - 1100 71.3 56 54.9 2.7 ESE | 110 10.8 0.00 0.00 52.5 74.2
5/31/20 - 1000 66.1 67 54.9 5.5 NNE | 20 12.8 0.00 0.00 52.5 68.0
5/31/20 - 0900 64.7 71 55.0 1.7 NE | 46 8.8 0.00 0.00 52.5 66.1
5/31/20 - 0800 60.2 82 54.8 1.1 ENE | 61 4.4 0.00 0.00 52.5 63.0
5/31/20 - 0700 55.1 96 54.0 0.4 SSW | 197 2.1 0.00 0.00 52.5 58.3
5/31/20 - 0600 52.9 98 52.2 0.7 NNE | 16 2.7 0.00 0.00 52.5 58.3
5/31/20 - 0500 55.2 94 53.4 0.5 NNE | 28 2.4 0.00 0.00 53.3 58.3
5/31/20 - 0400 57.5 90 54.7 0.5 N | 356 2.4 0.00 0.00 55.0 58.3
5/31/20 - 0300 57.9 89 54.7 1.0 ESE | 117 3.4 0.00 0.00 55.0 58.3
5/31/20 - 0200 56.3 94 54.7 0.6 NNE | 32 2.7 0.00 0.00 55.0 57.0
5/31/20 - 0100 54.4 96 53.3 0.5 NE | 46 2.4 0.00 0.00 53.6 76.8
5/31/20 - 0000 55.9 92 53.5 0.7 NNE | 21 3.4 0.00 0.00 54.4 76.8
5/30/20 - 2300 59.3 83 54.1 1.1 SSW | 203 4.4 0.00 0.00 57.7 76.8
5/30/20 - 2200 61.7 78 54.7 2.5 SSE | 147 8.1 0.00 0.00 60.2 76.8
5/30/20 - 2100 64.0 71 54.4 3.1 SSW | 212 9.5 0.00 0.00 60.2 76.8
5/30/20 - 2000 67.7 63 54.7 6.5 SW | 234 12.8 0.00 0.00 60.2 76.8
5/30/20 - 1900 70.2 60 55.5 8.9 SW | 236 15.5 0.00 0.00 60.2 76.8
5/30/20 - 1800 70.8 60 56.1 10.6 SW | 236 18.2 0.00 0.00 60.2 76.8
5/30/20 - 1700 71.3 60 56.6 10.0 SW | 236 16.8 0.00 0.00 60.2 76.8
5/30/20 - 1600 73.3 53 55.0 8.2 SSW | 207 18.2 0.00 0.00 60.2 76.8
5/30/20 - 1500 72.1 55 55.0 2.4 W | 264 9.1 0.00 0.00 60.2 76.8
5/30/20 - 1400 73.2 47 52.0 3.1 ENE | 75 9.8 0.00 0.00 60.2 76.8
5/30/20 - 1300 74.8 46 52.5 4.3 ESE | 119 10.8 0.00 0.00 60.2 76.8
5/30/20 - 1200 73.0 49 52.9 3.4 SSE | 154 10.8 0.00 0.00 60.2 75.6
5/30/20 - 1100 69.2 59 54.3 2.3 SW | 221 7.8 0.00 0.00 60.2 71.9
5/30/20 - 1000 65.6 73 56.5 1.9 ESE | 104 5.8 0.00 0.00 60.2 67.0
5/30/20 - 0900 62.5 79 55.8 3.1 SSW | 197 7.8 0.00 0.00 60.2 64.1
5/30/20 - 0800 63.1 71 53.7 2.4 SSW | 213 4.8 0.00 0.00 60.2 64.1
5/30/20 - 0700 61.6 73 53.0 2.6 WSW | 240 7.4 0.00 0.00 60.2 62.3
5/30/20 - 0600 61.1 73 52.4 2.9 WNW | 289 9.8 0.00 0.00 60.2 61.5
5/30/20 - 0500 61.1 74 52.7 3.8 W | 271 9.1 0.00 0.00 60.2 61.5
5/30/20 - 0400 61.1 75 53.0 4.2 W | 260 10.5 0.00 0.00 60.2 61.2
5/30/20 - 0300 60.7 76 53.1 4.8 W | 265 12.1 0.00 0.00 60.2 61.0
5/30/20 - 0200 60.6 76 53.1 5.6 W | 260 12.1 0.00 0.00 60.2 60.8
5/30/20 - 0100 60.4 76 52.7 7.0 WSW | 256 15.2 0.00 0.00 52.5 81.7
5/30/20 - 0000 60.4 75 52.6 7.4 WSW | 257 20.9 0.00 0.00 52.5 81.7
5/29/20 - 2300 60.8 75 53.0 7.4 WSW | 254 15.8 0.00 0.00 52.5 81.7
5/29/20 - 2200 61.2 75 53.2 7.9 WSW | 248 18.8 0.00 0.00 52.5 81.7
5/29/20 - 2100 63.4 69 53.2 8.0 SW | 233 17.2 0.00 0.00 52.5 81.7
5/29/20 - 2000 67.7 62 54.0 7.8 WSW | 240 18.5 0.00 0.00 52.5 81.7
5/29/20 - 1900 70.7 58 55.2 12.1 SW | 219 21.5 0.00 0.00 52.5 81.7
5/29/20 - 1800 72.2 56 55.7 14.3 SW | 226 25.6 0.00 0.00 52.5 81.7
5/29/20 - 1700 75.1 52 56.0 14.4 SW | 228 26.6 0.00 0.00 52.5 81.7
5/29/20 - 1600 77.9 48 56.5 11.8 WSW | 238 21.2 0.00 0.00 52.5 81.7
5/29/20 - 1500 77.4 48 56.3 8.0 WSW | 249 19.5 0.00 0.00 52.5 81.7
5/29/20 - 1400 78.2 47 56.4 10.7 SW | 236 18.5 0.00 0.00 52.5 81.7
5/29/20 - 1300 80.2 43 55.7 5.5 NW | 317 13.8 0.00 0.00 52.5 81.7
5/29/20 - 1200 79.7 43 55.2 5.8 NE | 34 13.5 0.00 0.00 52.5 81.4
5/29/20 - 1100 76.6 47 55.0 5.1 S | 169 11.5 0.00 0.00 52.5 78.6
5/29/20 - 1000 73.0 52 54.1 4.7 E | 96 9.5 0.00 0.00 52.5 75.3
5/29/20 - 0900 66.1 65 54.1 3.2 NE | 44 9.5 0.00 0.00 52.5 69.9
5/29/20 - 0800 64.8 70 54.8 2.8 S | 175 6.8 0.00 0.00 52.5 66.4
5/29/20 - 0700 57.5 88 53.8 0.9 W | 266 3.4 0.00 0.00 52.5 62.3
5/29/20 - 0600 52.8 94 51.1 0.8 NW | 305 3.4 0.00 0.00 52.5 57.9
5/29/20 - 0500 54.0 92 51.6 1.2 WSW | 249 4.1 0.00 0.00 52.6 57.9
5/29/20 - 0400 54.4 92 52.0 2.1 ENE | 63 4.8 0.00 0.00 53.9 57.9
5/29/20 - 0300 55.7 88 52.1 1.3 ENE | 61 3.4 0.00 0.00 54.2 57.9
5/29/20 - 0200 57.3 84 52.4 3.6 E | 92 7.4 0.00 0.00 56.6 57.9
5/29/20 - 0100 59.0 79 52.4 2.3 ESE | 106 7.1 0.00 0.00 51.5 99.2
5/29/20 - 0000 60.6 75 52.7 2.4 SSE | 154 5.1 0.00 0.00 51.5 99.2
5/28/20 - 2300 64.2 68 53.4 2.2 SSE | 158 6.1 0.00 0.00 51.5 99.2
5/28/20 - 2200 69.8 58 54.4 2.7 ESE | 114 9.8 0.00 0.00 51.5 99.2
5/28/20 - 2100 75.3 49 55.0 3.3 NW | 316 8.4 0.00 0.00 51.5 99.2
5/28/20 - 2000 85.4 36 55.6 2.4 SSW | 198 6.4 0.00 0.00 51.5 99.2
5/28/20 - 1900 91.7 34 59.4 3.3 NNW | 335 7.8 0.00 0.00 51.5 99.2
5/28/20 - 1800 94.7 28 56.4 4.2 NW | 319 9.8 0.00 0.00 51.5 99.2
5/28/20 - 1700 95.9 20 48.7 5.2 NNW | 332 11.8 0.00 0.00 51.5 99.2
5/28/20 - 1600 97.4 15 42.1 5.4 WNW | 294 11.5 0.00 0.00 51.5 99.2
5/28/20 - 1500 98.7 13 39.4 8.1 SW | 229 14.2 0.00 0.00 51.5 99.2
5/28/20 - 1400 96.0 17 43.0 8.5 SSW | 196 14.5 0.00 0.00 51.5 98.3
5/28/20 - 1300 91.1 30 55.0 6.6 SSE | 158 10.8 0.00 0.00 51.5 94.5
5/28/20 - 1200 86.0 37 56.5 6.7 SSE | 162 10.8 0.00 0.00 51.5 89.9
5/28/20 - 1100 83.0 41 56.8 4.8 SSE | 153 9.8 0.00 0.00 51.5 84.7
5/28/20 - 1000 76.8 48 55.3 3.0 SSE | 154 9.1 0.00 0.00 51.5 81.5
5/28/20 - 0900 72.8 55 55.8 4.1 S | 179 8.8 0.00 0.00 51.5 75.2
Max 100.5 98 59.4 14.4 - 26.6 0.00 0.00 69.2 101.1
Avg 71.5 58 53.3 4.0 - 9.2 0.00 - - -
Min 52.8 13 39.4 0.4 - 1.7 0.00 0.00 51.5 57.0
Total - - - - - - 0.00 - - -
Tip: Bookmark this page for easy future reference